createdAt,value
2019-03-04T00:01:52.161Z,42.04
2019-03-04T00:04:23.581Z,42.01
2019-03-04T00:06:53.897Z,42.11
2019-03-04T00:09:24.197Z,42.06
2019-03-04T00:11:54.483Z,42.06
2019-03-04T00:14:24.809Z,42.07
2019-03-04T00:16:55.070Z,42.10
2019-03-04T00:19:25.351Z,42.19
2019-03-04T00:21:55.634Z,42.19
2019-03-04T00:24:25.950Z,42.18
2019-03-04T00:26:56.212Z,42.23
2019-03-04T00:29:26.589Z,42.22
2019-03-04T00:31:56.802Z,42.21
2019-03-04T00:34:27.054Z,42.18
2019-03-04T00:36:57.343Z,42.22
2019-03-04T00:39:27.677Z,42.24
2019-03-04T00:41:58.017Z,42.24
2019-03-04T00:44:28.291Z,42.31
2019-03-04T00:46:58.594Z,42.29
2019-03-04T00:49:28.899Z,42.27
2019-03-04T00:51:59.143Z,42.28
2019-03-04T00:54:29.432Z,42.32
2019-03-04T00:57:00.166Z,42.35
2019-03-04T00:59:31.407Z,42.35
2019-03-04T01:02:01.807Z,42.27
2019-03-04T01:04:32.196Z,42.19
2019-03-04T01:07:02.940Z,42.28
2019-03-04T01:09:33.282Z,42.31
2019-03-04T01:12:03.611Z,42.37
2019-03-04T01:14:33.857Z,42.34
2019-03-04T01:17:04.157Z,42.34
2019-03-04T01:19:34.478Z,42.32
2019-03-04T01:22:04.784Z,42.35
2019-03-04T01:24:35.021Z,42.37
2019-03-04T01:27:05.288Z,42.31
2019-03-04T01:29:35.544Z,42.36
2019-03-04T01:32:05.889Z,42.42
2019-03-04T01:34:37.415Z,42.38
2019-03-04T01:37:07.702Z,42.34
2019-03-04T01:39:38.070Z,42.36
2019-03-04T01:42:08.446Z,42.36
2019-03-04T01:44:38.733Z,42.37
2019-03-04T01:47:08.990Z,42.29
2019-03-04T01:49:39.240Z,42.33
2019-03-04T01:52:09.604Z,42.29
2019-03-04T01:54:39.850Z,42.33
2019-03-04T01:57:10.139Z,42.31
2019-03-04T01:59:40.447Z,42.29
2019-03-04T02:02:10.700Z,42.33
2019-03-04T02:04:41.133Z,42.31
2019-03-04T02:07:11.407Z,42.38
2019-03-04T02:09:41.617Z,42.42
2019-03-04T02:12:12.013Z,42.39
2019-03-04T02:14:42.242Z,42.42
2019-03-04T02:17:12.556Z,42.52
2019-03-04T02:19:42.827Z,42.44
2019-03-04T02:22:13.115Z,42.46
2019-03-04T02:24:43.323Z,42.36
2019-03-04T02:27:13.795Z,42.45
2019-03-04T02:29:44.136Z,42.49
2019-03-04T02:32:14.478Z,42.50
2019-03-04T02:34:46.018Z,42.49
2019-03-04T02:37:16.504Z,42.50
2019-03-04T02:39:46.800Z,42.46
2019-03-04T02:42:17.217Z,42.35
2019-03-04T02:44:47.466Z,42.38
2019-03-04T02:47:17.713Z,42.43
2019-03-04T02:49:49.336Z,42.46
2019-03-04T02:52:19.581Z,42.42
2019-03-04T02:54:49.804Z,42.46
2019-03-04T02:57:20.098Z,42.48
2019-03-04T02:59:50.387Z,42.44
2019-03-04T03:02:20.718Z,42.35
2019-03-04T03:04:50.999Z,42.34
2019-03-04T03:07:21.336Z,42.38
2019-03-04T03:09:51.646Z,42.41
2019-03-04T03:12:23.086Z,42.40
2019-03-04T03:14:53.702Z,42.36
2019-03-04T03:17:23.983Z,42.37
2019-03-04T03:19:54.314Z,42.40
2019-03-04T03:22:24.656Z,42.38
2019-03-04T03:24:55.007Z,42.46
2019-03-04T03:27:25.245Z,42.51
2019-03-04T03:29:55.979Z,42.54
2019-03-04T03:32:26.403Z,42.54
2019-03-04T03:34:56.689Z,42.54
2019-03-04T03:37:26.938Z,42.46
2019-03-04T03:39:57.247Z,42.52
2019-03-04T03:42:27.688Z,42.52
2019-03-04T03:44:57.930Z,42.23
2019-03-04T03:47:28.184Z,41.90
2019-03-04T03:49:58.578Z,40.41
2019-03-04T03:52:28.905Z,40.16
2019-03-04T03:54:59.206Z,39.62
2019-03-04T03:57:29.495Z,39.40
2019-03-04T03:59:59.811Z,39.18
2019-03-04T04:02:30.178Z,39.63
2019-03-04T04:05:00.554Z,38.92
2019-03-04T04:07:30.765Z,38.90
2019-03-04T04:10:01.185Z,38.70
2019-03-04T04:12:32.396Z,39.07
2019-03-04T04:15:02.831Z,39.02
2019-03-04T04:17:33.181Z,39.06
2019-03-04T04:20:03.409Z,38.92
2019-03-04T04:22:33.777Z,38.86
2019-03-04T04:25:04.032Z,38.84
2019-03-04T04:27:34.442Z,38.82
2019-03-04T04:30:04.846Z,38.76
2019-03-04T04:32:35.208Z,38.84
2019-03-04T04:35:05.816Z,38.83
2019-03-04T04:37:36.107Z,38.89
2019-03-04T04:40:07.494Z,38.90
2019-03-04T04:42:37.768Z,38.81
2019-03-04T04:45:08.091Z,38.93
2019-03-04T04:47:38.397Z,38.85
2019-03-04T04:50:10.062Z,38.90
2019-03-04T04:52:40.433Z,38.83
2019-03-04T04:55:10.921Z,38.68
2019-03-04T04:57:41.209Z,38.75
2019-03-04T05:00:13.410Z,38.80
2019-03-04T05:02:43.817Z,38.80
2019-03-04T05:05:14.337Z,38.83
2019-03-04T05:07:44.728Z,38.72
2019-03-04T05:10:17.055Z,38.67
2019-03-04T05:12:47.329Z,38.65
2019-03-04T05:15:18.673Z,38.65
2019-03-04T05:17:48.911Z,38.86
2019-03-04T05:20:20.703Z,38.90
2019-03-04T05:22:51.056Z,38.70
2019-03-04T05:25:21.473Z,38.52
2019-03-04T05:27:51.716Z,38.07
2019-03-04T05:30:22.009Z,37.78
2019-03-04T05:32:52.263Z,38.03
2019-03-04T05:35:22.851Z,37.93
2019-03-04T05:37:53.213Z,37.88
2019-03-04T05:40:23.792Z,38.10
2019-03-04T05:42:54.119Z,36.76
2019-03-04T05:45:24.643Z,35.47
2019-03-04T05:47:55.161Z,34.85
2019-03-04T05:50:25.505Z,35.11
2019-03-04T05:52:55.811Z,35.39
2019-03-04T05:55:26.090Z,35.62
2019-03-04T05:57:56.443Z,35.69
2019-03-04T06:00:28.923Z,35.91
2019-03-04T06:02:59.216Z,35.98
2019-03-04T06:05:30.490Z,36.08
2019-03-04T06:08:03.036Z,36.07
2019-03-04T06:10:33.387Z,35.98
2019-03-04T06:13:04.810Z,35.79
2019-03-04T06:15:35.123Z,36.01
2019-03-04T06:18:05.443Z,36.36
2019-03-04T06:20:35.826Z,36.38
2019-03-04T06:23:06.134Z,36.46
2019-03-04T06:25:36.505Z,36.04
2019-03-04T06:28:06.918Z,35.96
2019-03-04T06:30:37.247Z,36.13
2019-03-04T06:33:07.521Z,36.07
2019-03-04T06:35:37.769Z,36.14
2019-03-04T06:38:08.079Z,36.17
2019-03-04T06:40:38.385Z,36.33
2019-03-04T06:43:08.632Z,36.38
2019-03-04T06:45:39.950Z,36.29
2019-03-04T06:48:10.176Z,36.37
2019-03-04T06:50:51.414Z,36.42
2019-03-04T06:54:02.724Z,36.44
2019-03-04T06:56:42.923Z,36.49
2019-03-04T06:59:18.947Z,36.53
2019-03-04T07:01:54.129Z,36.59
2019-03-04T07:04:35.769Z,36.53
2019-03-04T07:07:06.133Z,36.52
2019-03-04T07:09:36.430Z,36.66
2019-03-04T07:12:06.768Z,36.57
2019-03-04T07:14:37.143Z,36.66
2019-03-04T07:17:07.348Z,36.66
2019-03-04T07:19:39.465Z,36.67
2019-03-04T07:22:11.073Z,36.69
2019-03-04T07:24:42.535Z,36.65
2019-03-04T07:27:12.870Z,36.70
2019-03-04T07:29:43.303Z,36.72
2019-03-04T07:32:13.556Z,36.69
2019-03-04T07:34:44.305Z,36.71
2019-03-04T07:37:14.543Z,36.69
2019-03-04T07:39:44.887Z,36.67
2019-03-04T07:42:15.136Z,36.69
2019-03-04T07:44:45.479Z,36.68
2019-03-04T07:47:15.799Z,36.66
2019-03-04T07:49:49.754Z,36.67
2019-03-04T07:52:20.048Z,36.68
2019-03-04T07:54:50.554Z,36.67
2019-03-04T07:57:20.891Z,36.64
2019-03-04T07:59:51.215Z,36.63
2019-03-04T08:02:23.117Z,36.64
2019-03-04T08:04:53.323Z,36.63
2019-03-04T08:07:47.096Z,36.66
2019-03-04T08:10:46.350Z,36.67
2019-03-04T08:13:29.345Z,36.69
2019-03-04T08:16:00.314Z,36.76
2019-03-04T08:18:30.673Z,36.76
2019-03-04T08:21:00.942Z,36.69
2019-03-04T08:23:31.230Z,36.68
2019-03-04T08:26:01.542Z,36.70
2019-03-04T08:28:31.832Z,36.69
2019-03-04T08:31:02.260Z,36.68
2019-03-04T08:33:32.596Z,36.67
2019-03-04T08:36:02.928Z,36.66
2019-03-04T08:38:33.359Z,36.69
2019-03-04T08:41:03.757Z,36.74
2019-03-04T08:43:35.099Z,36.69
2019-03-04T08:46:06.462Z,36.71
2019-03-04T08:48:36.680Z,36.70
2019-03-04T08:51:06.989Z,36.75
2019-03-04T08:53:37.219Z,36.68
2019-03-04T08:56:07.486Z,36.69
2019-03-04T08:58:38.790Z,36.70
2019-03-04T09:01:09.061Z,36.78
2019-03-04T09:03:39.328Z,36.77
2019-03-04T09:06:10.672Z,36.70
2019-03-04T09:08:42.453Z,36.61
2019-03-04T09:11:12.818Z,36.65
2019-03-04T09:13:43.129Z,36.70
2019-03-04T09:16:13.494Z,36.72
2019-03-04T09:18:43.963Z,36.68
2019-03-04T09:21:14.282Z,36.71
2019-03-04T09:23:44.641Z,36.65
2019-03-04T09:26:16.017Z,36.66
2019-03-04T09:28:48.534Z,36.64
2019-03-04T09:31:18.758Z,36.66
2019-03-04T09:33:49.065Z,36.66
2019-03-04T09:36:19.375Z,36.71
2019-03-04T09:38:50.409Z,36.67
2019-03-04T09:41:20.691Z,36.67
2019-03-04T09:43:51.032Z,36.66
2019-03-04T09:46:21.250Z,36.61
2019-03-04T09:48:51.571Z,36.57
2019-03-04T09:51:24.610Z,36.61
2019-03-04T09:53:53.834Z,36.66
2019-03-04T09:56:24.155Z,36.71
2019-03-04T09:58:54.392Z,36.71
2019-03-04T10:01:32.105Z,36.76
2019-03-04T10:04:32.259Z,36.77
2019-03-04T10:07:18.813Z,36.76
2019-03-04T10:10:48.399Z,36.73
2019-03-04T10:14:11.989Z,36.82
2019-03-04T10:17:11.071Z,36.79
2019-03-04T10:20:17.490Z,36.86
2019-03-04T10:23:04.516Z,36.83
2019-03-04T10:25:52.112Z,36.81
2019-03-04T10:28:48.279Z,36.79
2019-03-04T10:31:37.381Z,36.86
2019-03-04T10:34:54.772Z,36.90
2019-03-04T10:37:59.255Z,36.91
2019-03-04T10:41:00.128Z,36.90
2019-03-04T10:44:20.575Z,36.96
2019-03-04T10:46:59.103Z,36.96
2019-03-04T10:49:30.702Z,36.96
2019-03-04T10:52:01.318Z,37.00
2019-03-04T10:54:31.702Z,37.01
2019-03-04T10:57:02.020Z,36.99
2019-03-04T10:59:32.354Z,37.05
2019-03-04T11:02:02.701Z,37.01
2019-03-04T11:04:32.983Z,37.06
2019-03-04T11:07:04.339Z,37.07
2019-03-04T11:09:34.592Z,37.08
2019-03-04T11:12:06.028Z,37.02
2019-03-04T11:14:36.345Z,37.08
2019-03-04T11:17:06.685Z,37.09
2019-03-04T11:19:36.994Z,37.10
2019-03-04T11:22:11.083Z,37.08
2019-03-04T11:24:41.434Z,37.09
2019-03-04T11:27:11.813Z,37.13
2019-03-04T11:29:42.672Z,37.13
2019-03-04T11:32:12.964Z,37.19
2019-03-04T11:34:43.219Z,37.16
2019-03-04T11:37:13.557Z,37.18
2019-03-04T11:40:02.659Z,37.14
2019-03-04T11:42:34.081Z,37.17
2019-03-04T11:45:05.595Z,37.18
2019-03-04T11:47:36.287Z,37.21
2019-03-04T11:50:09.624Z,37.19
2019-03-04T11:52:39.944Z,37.22
2019-03-04T11:55:11.300Z,37.23
2019-03-04T11:57:41.599Z,37.19
2019-03-04T12:00:15.435Z,37.20
2019-03-04T12:02:46.933Z,37.22
2019-03-04T12:05:17.327Z,37.22
2019-03-04T12:07:47.642Z,37.19
2019-03-04T12:10:18.164Z,37.19
2019-03-04T12:12:49.009Z,37.18
2019-03-04T12:15:19.893Z,37.20
2019-03-04T12:17:50.257Z,37.14
2019-03-04T12:20:20.595Z,37.20
2019-03-04T12:22:53.736Z,37.14
2019-03-04T12:25:24.085Z,37.13
2019-03-04T12:27:54.547Z,37.15
2019-03-04T12:30:24.913Z,37.14
2019-03-04T12:32:55.248Z,37.14
2019-03-04T12:35:25.521Z,37.18
2019-03-04T12:37:57.277Z,37.21
2019-03-04T12:40:27.677Z,37.25
2019-03-04T12:42:57.991Z,37.29
2019-03-04T12:45:34.305Z,37.29
2019-03-04T12:48:00.369Z,37.29
2019-03-04T12:50:30.717Z,37.29
2019-03-04T12:53:01.343Z,37.23
2019-03-04T12:55:33.016Z,37.28
2019-03-04T12:58:03.517Z,37.25
2019-03-04T13:00:33.929Z,37.27
2019-03-04T13:03:04.328Z,37.35
2019-03-04T13:05:34.624Z,37.32
2019-03-04T13:08:04.975Z,37.29
2019-03-04T13:10:40.575Z,37.26
2019-03-04T13:13:10.884Z,37.31
2019-03-04T13:15:41.332Z,37.34
2019-03-04T13:18:12.669Z,37.29
2019-03-04T13:20:45.185Z,37.33
2019-03-04T13:23:21.296Z,37.33
2019-03-04T13:25:52.727Z,37.52
2019-03-04T13:28:23.222Z,38.05
2019-03-04T13:30:54.101Z,38.10
2019-03-04T13:33:24.375Z,38.17
2019-03-04T13:35:54.653Z,38.13
2019-03-04T13:38:24.844Z,38.21
2019-03-04T13:40:55.824Z,38.22
2019-03-04T13:43:26.321Z,38.29
2019-03-04T13:45:56.722Z,38.61
2019-03-04T13:48:27.074Z,38.70
2019-03-04T13:50:57.364Z,38.79
2019-03-04T13:53:27.678Z,38.83
2019-03-04T13:55:57.962Z,38.82
2019-03-04T13:58:28.231Z,38.84
2019-03-04T14:00:58.567Z,38.82
2019-03-04T14:03:28.958Z,38.89
2019-03-04T14:06:02.667Z,38.93
2019-03-04T14:08:34.350Z,38.93
2019-03-04T14:11:06.321Z,38.96
2019-03-04T14:13:36.598Z,38.95
2019-03-04T14:16:07.156Z,39.00
2019-03-04T14:18:37.510Z,39.06
2019-03-04T14:21:08.783Z,39.09
2019-03-04T14:23:39.013Z,39.17
2019-03-04T14:26:09.331Z,39.25
2019-03-04T14:28:39.670Z,39.25
2019-03-04T14:31:09.893Z,39.32
2019-03-04T14:33:40.260Z,39.25
2019-03-04T14:36:10.638Z,39.18
2019-03-04T14:38:42.487Z,39.21
2019-03-04T14:41:13.834Z,39.29
2019-03-04T14:43:44.226Z,39.25
2019-03-04T14:46:27.470Z,39.27
2019-03-04T14:48:57.802Z,39.16
2019-03-04T14:51:29.086Z,39.11
2019-03-04T14:54:02.600Z,39.22
2019-03-04T14:56:32.836Z,39.19
2019-03-04T14:59:10.293Z,39.24
2019-03-04T15:01:35.288Z,39.40
2019-03-04T15:04:05.574Z,39.41
2019-03-04T15:06:35.840Z,39.44
2019-03-04T15:09:09.151Z,39.48
2019-03-04T15:11:41.007Z,39.42
2019-03-04T15:14:11.432Z,39.51
2019-03-04T15:16:41.776Z,39.47
2019-03-04T15:19:12.083Z,39.49
2019-03-04T15:21:42.451Z,39.51
2019-03-04T15:24:12.953Z,39.53
2019-03-04T15:26:44.267Z,39.01
2019-03-04T15:29:14.606Z,38.96
2019-03-04T15:31:44.968Z,39.00
2019-03-04T15:34:17.011Z,39.09
2019-03-04T15:36:48.030Z,39.10
2019-03-04T15:39:22.975Z,39.07
2019-03-04T15:41:50.428Z,39.13
2019-03-04T15:44:20.717Z,39.09
2019-03-04T15:46:51.079Z,39.07
2019-03-04T15:49:21.328Z,39.01
2019-03-04T15:51:52.686Z,39.02
2019-03-04T15:54:22.925Z,39.06
2019-03-04T15:56:53.236Z,39.00
2019-03-04T15:59:23.543Z,39.03
2019-03-04T16:01:53.903Z,39.05
2019-03-04T16:04:24.174Z,39.18
2019-03-04T16:06:54.470Z,39.29
2019-03-04T16:09:25.736Z,39.29
2019-03-04T16:11:56.112Z,39.26
2019-03-04T16:14:26.392Z,39.27
2019-03-04T16:16:56.807Z,39.28
2019-03-04T16:19:27.160Z,39.26
2019-03-04T16:21:57.595Z,39.23
2019-03-04T16:24:27.897Z,39.19
2019-03-04T16:26:58.231Z,39.27
2019-03-04T16:29:36.912Z,37.43
2019-03-04T16:32:00.561Z,38.25
2019-03-04T16:34:30.923Z,38.21
2019-03-04T16:37:05.512Z,37.73
2019-03-04T16:39:35.999Z,38.19
2019-03-04T16:42:07.903Z,38.32
2019-03-04T16:44:39.942Z,38.31
2019-03-04T16:47:10.518Z,38.35
2019-03-04T16:49:40.800Z,38.43
2019-03-04T16:52:11.234Z,38.39
2019-03-04T16:54:42.574Z,38.52
2019-03-04T16:57:14.108Z,38.51
2019-03-04T16:59:44.418Z,38.52
2019-03-04T17:02:14.749Z,38.54
2019-03-04T17:04:45.038Z,38.51
2019-03-04T17:07:15.301Z,38.46
2019-03-04T17:09:45.706Z,38.52
2019-03-04T17:12:16.076Z,38.55
2019-03-04T17:14:46.426Z,38.56
2019-03-04T17:17:16.723Z,38.64
2019-03-04T17:19:47.069Z,38.63
2019-03-04T17:22:17.391Z,38.72
2019-03-04T17:24:47.667Z,38.70
2019-03-04T17:27:17.997Z,38.67
2019-03-04T17:29:48.458Z,38.68
2019-03-04T17:32:18.832Z,38.70
2019-03-04T17:34:49.151Z,38.74
2019-03-04T17:37:19.547Z,38.64
2019-03-04T17:39:49.901Z,38.63
2019-03-04T17:42:21.053Z,38.63
2019-03-04T17:44:51.404Z,38.76
2019-03-04T17:47:21.751Z,38.73
2019-03-04T17:49:53.322Z,38.72
2019-03-04T17:52:23.695Z,38.62
2019-03-04T17:54:54.085Z,38.49
2019-03-04T17:57:25.790Z,38.46
2019-03-04T17:59:56.325Z,38.36
2019-03-04T18:02:27.710Z,38.40
2019-03-04T18:04:58.033Z,38.42
2019-03-04T18:07:28.609Z,38.53
2019-03-04T18:09:59.000Z,38.55
2019-03-04T18:12:29.533Z,38.56
2019-03-04T18:14:59.865Z,38.45
2019-03-04T18:17:30.229Z,38.37
2019-03-04T18:20:01.717Z,38.32
2019-03-04T18:22:33.679Z,38.29
2019-03-04T18:25:04.152Z,38.23
2019-03-04T18:28:12.827Z,38.19
2019-03-04T18:31:08.818Z,38.17
2019-03-04T18:34:38.294Z,38.08
2019-03-04T18:37:37.672Z,35.17
2019-03-04T18:40:44.220Z,36.51
2019-03-04T18:44:07.844Z,37.15
2019-03-04T18:47:17.944Z,37.20
2019-03-04T18:49:48.545Z,34.98
2019-03-04T18:52:19.234Z,33.13
2019-03-04T18:54:49.856Z,33.65
2019-03-04T18:57:20.320Z,33.97
2019-03-04T18:59:57.364Z,34.69
2019-03-04T19:02:27.907Z,34.27
2019-03-04T19:04:58.480Z,35.70
2019-03-04T19:07:29.069Z,36.00
2019-03-04T19:09:59.559Z,36.29
2019-03-04T19:12:31.095Z,36.47
2019-03-04T19:15:01.667Z,36.64
2019-03-04T19:17:33.933Z,36.78
2019-03-04T19:20:04.914Z,36.88
2019-03-04T19:22:37.689Z,36.97
2019-03-04T19:25:08.273Z,37.01
2019-03-04T19:27:38.910Z,37.10
2019-03-04T19:30:10.302Z,37.18
2019-03-04T19:32:40.836Z,37.27
2019-03-04T19:35:11.274Z,37.27
2019-03-04T19:37:42.028Z,37.32
2019-03-04T19:40:13.428Z,37.32
2019-03-04T19:42:43.564Z,37.34
2019-03-04T19:45:14.484Z,37.41
2019-03-04T19:47:44.945Z,37.45
2019-03-04T19:50:15.377Z,37.48
2019-03-04T19:52:45.667Z,37.57
2019-03-04T19:55:17.133Z,37.57
2019-03-04T19:57:47.473Z,37.58
2019-03-04T20:00:19.092Z,37.63
2019-03-04T20:02:49.654Z,37.68
2019-03-04T20:05:20.406Z,37.63
2019-03-04T20:07:50.829Z,37.67
2019-03-04T20:10:21.261Z,37.80
2019-03-04T20:12:51.660Z,37.88
2019-03-04T20:15:23.067Z,37.96
2019-03-04T20:17:53.513Z,38.06
2019-03-04T20:20:26.603Z,38.16
2019-03-04T20:22:57.007Z,38.22
2019-03-04T20:25:29.275Z,38.27
2019-03-04T20:27:59.599Z,38.39
2019-03-04T20:30:31.633Z,38.40
2019-03-04T20:33:02.089Z,38.44
2019-03-04T20:35:32.495Z,38.53
2019-03-04T20:38:03.163Z,38.57
2019-03-04T20:40:34.561Z,38.67
2019-03-04T20:43:05.086Z,38.68
2019-03-04T20:45:35.432Z,38.74
2019-03-04T20:48:06.028Z,38.84
2019-03-04T20:50:36.427Z,38.88
2019-03-04T20:53:06.913Z,38.84
2019-03-04T20:55:37.254Z,38.98
2019-03-04T20:58:07.665Z,38.98
2019-03-04T21:00:38.183Z,39.03
2019-03-04T21:03:09.643Z,39.04
2019-03-04T21:05:40.156Z,39.07
2019-03-04T21:08:12.818Z,39.08
2019-03-04T21:10:43.357Z,39.12
2019-03-04T21:13:22.230Z,39.17
2019-03-04T21:15:53.201Z,39.13
2019-03-04T21:18:23.720Z,38.98
2019-03-04T21:20:54.123Z,38.90
2019-03-04T21:23:24.646Z,38.80
2019-03-04T21:26:37.919Z,38.79
2019-03-04T21:29:30.293Z,38.73
2019-03-04T21:32:32.945Z,38.74
2019-03-04T21:35:44.907Z,38.71
2019-03-04T21:38:15.598Z,38.69
2019-03-04T21:41:00.459Z,38.70
2019-03-04T21:43:38.883Z,38.62
2019-03-04T21:46:38.563Z,38.69
2019-03-04T21:49:11.164Z,38.67
2019-03-04T21:52:19.444Z,38.77
2019-03-04T21:54:41.420Z,38.68
2019-03-04T21:57:26.219Z,38.63
2019-03-04T21:59:56.700Z,38.53
2019-03-04T22:02:34.503Z,38.57
2019-03-04T22:05:08.760Z,38.63
2019-03-04T22:07:40.658Z,38.81
2019-03-04T22:10:11.662Z,38.79
2019-03-04T22:12:41.986Z,38.75
2019-03-04T22:15:12.288Z,38.76
2019-03-04T22:17:42.768Z,38.77
2019-03-04T22:20:13.534Z,38.75
2019-03-04T22:22:43.928Z,38.75
2019-03-04T22:25:14.520Z,38.74
2019-03-04T22:27:45.004Z,38.71
2019-03-04T22:30:16.276Z,38.75
2019-03-04T22:32:46.771Z,38.75
2019-03-04T22:35:17.670Z,38.82
2019-03-04T22:37:48.174Z,39.23
2019-03-04T22:40:19.516Z,39.36
2019-03-04T22:42:49.897Z,39.57
2019-03-04T22:45:20.193Z,40.24
2019-03-04T22:47:50.851Z,41.13
2019-03-04T22:50:21.224Z,41.48
2019-03-04T22:52:51.535Z,41.81
2019-03-04T22:55:28.486Z,42.10
2019-03-04T22:57:58.798Z,42.08
2019-03-04T23:01:29.572Z,42.19
2019-03-04T23:04:15.049Z,42.15
2019-03-04T23:06:51.285Z,42.19
2019-03-04T23:09:21.936Z,42.19
2019-03-04T23:11:57.611Z,42.15
2019-03-04T23:14:29.312Z,42.08
2019-03-04T23:17:00.245Z,42.09
2019-03-04T23:19:30.621Z,42.13
2019-03-04T23:22:01.044Z,42.09
2019-03-04T23:24:31.387Z,42.06
2019-03-04T23:27:01.691Z,42.03
2019-03-04T23:29:32.219Z,41.99
2019-03-04T23:32:02.514Z,41.92
2019-03-04T23:34:35.710Z,41.96
2019-03-04T23:37:06.106Z,41.95
2019-03-04T23:39:37.416Z,41.88
2019-03-04T23:42:07.781Z,41.86
2019-03-04T23:44:38.198Z,41.83
2019-03-04T23:47:08.453Z,41.76
2019-03-04T23:49:38.803Z,41.81
2019-03-04T23:52:09.216Z,41.81
2019-03-04T23:54:39.533Z,41.73
2019-03-04T23:57:09.865Z,41.79
2019-03-04T23:59:40.194Z,41.74
